Bilsdale, United Kingdom
Current Conditions -  °F | °C
As of 9:50 AM on Friday 19 Dec 2014 (Local Time) from EGNV Reporting Station
Few Clouds Few Clouds  
Wind Chill: 36°   Ceiling: Unl
Heat Index: 45°   Visibility: 6mi
Dew Point: 30°   Wind: 24mph
Humidity: 57%   Direction: 260°W
Pressure: 29.68"   Gusts: NA
Location:  54.37°N, 1.12°W
Report Text: EGNV 190950Z 26021KT 9999 FEW025 07/M01 Q1005
Loading
Personal Weather Stations






























Interactive Weather Map New forecast layout! Learn more

10-Day Weather Forecast

Advertisements
Track Severe Weather on mobile